Latest Weather Observations for Darwin Harbour

IDD60901

Issued at 6:21 pm CST Monday 10 August 2020 (issued every 10 minutes, with the page automatically refreshed every 10 minutes)

About weather observations | Map of Darwin area stations | Latest observations for Darwin area | Other Formats
Station Details ID: 014072 Name: DARWIN NTC AWS Lat: -12.47 Lon: 130.85 Height: 0.0 m
Data from the previous 72 hours. | See also: Recent months for locations in Northern Territory
Date/Time
CST
Temp
°C
App
Temp
°C
Dew
Point
°C
Rel
Hum
%
Delta-T
°C
Wind Press
QNH
hPa
Press
MSL
hPa
Rain since
9am
mm
Dir  Spd
km/h
Gust
km/h
Spd
kts
Gust
kts
10/06:00pm 28.8 - - - - N 11 19 6 10 1011.1 1011.0 -
10/05:30pm 28.9 - - - - N 17 24 9 13 1010.9 1010.8 -
10/05:00pm 29.3 - - - - N 13 24 7 13 1010.7 1010.6 -
10/04:30pm 29.1 - - - - N 15 24 8 13 1010.5 1010.4 -
10/04:00pm 28.8 - - - - NNW 13 22 7 12 1010.6 1010.5 -
10/03:30pm 28.1 - - - - NW 11 20 6 11 1010.8 1010.7 -
10/03:00pm 27.1 - - - - WNW 17 24 9 13 1011.2 1011.1 -
10/02:30pm 27.5 - - - - WNW 17 26 9 14 1011.5 1011.4 -
10/02:00pm 27.5 - - - - WNW 20 26 11 14 1011.8 1011.7 -
10/01:30pm 27.8 - - - - WNW 19 28 10 15 1012.2 1012.1 -
10/01:00pm 28.1 - - - - NW 13 22 7 12 1012.6 1012.5 -
10/12:30pm 27.6 - - - - WNW 11 20 6 11 1012.9 1012.8 -
10/12:00pm 26.7 - - - - W 11 19 6 10 1013.2 1013.1 -
10/11:30am 26.9 - - - - SSE 6 11 3 6 1013.8 1013.7 -
10/11:00am 28.2 - - - - ENE 9 19 5 10 1014.2 1014.1 -
10/10:30am 27.7 - - - - ENE 9 17 5 9 1014.4 1014.3 -
10/10:00am 26.8 - - - - ENE 9 19 5 10 1014.5 1014.4 -
10/09:30am 26.5 - - - - ENE 11 20 6 11 1014.5 1014.4 -
10/09:00am 26.2 - - - - ENE 7 17 4 9 1014.4 1014.3 -
10/08:30am 25.2 - - - - ENE 4 9 2 5 1014.2 1014.1 -
10/08:00am 24.2 - - - - ENE 4 9 2 5 1013.9 1013.8 -
10/07:30am 23.5 - - - - ENE 6 11 3 6 1013.8 1013.7 -
10/07:00am 23.8 - - - - ENE 7 13 4 7 1013.7 1013.6 -
10/06:30am 23.8 - - - - ENE 4 7 2 4 1013.4 1013.3 -
10/06:00am 23.4 - - - - ENE 4 6 2 3 1013.2 1013.1 -
10/05:30am 23.5 - - - - ENE 4 9 2 5 1013.2 1013.1 -
10/05:00am 24.1 - - - - E 6 9 3 5 1012.9 1012.8 -
10/04:30am 24.2 - - - - SSE 7 9 4 5 1012.7 1012.6 -
10/04:00am 24.1 - - - - SSW 6 7 3 4 1012.7 1012.6 -
10/03:30am 24.0 - - - - SSW 7 9 4 5 1012.7 1012.6 -
10/03:00am 24.1 - - - - SSW 11 13 6 7 1012.8 1012.7 -
10/02:30am 24.4 - - - - SSW 13 17 7 9 1012.7 1012.6 -
10/02:00am 25.3 - - - - WNW 2 4 1 2 1012.8 1012.7 -
10/01:30am 24.9 - - - - ENE 4 9 2 5 1012.7 1012.6 -
10/01:00am 24.9 - - - - ENE 4 6 2 3 1013.0 1012.9 -
10/12:30am 24.8 - - - - ENE 4 6 2 3 1013.2 1013.1 -
10/12:00am 25.3 - - - - CALM 0 2 0 1 1013.2 1013.1 -
 
Date/Time
CST
Temp
°C
App
Temp
°C
Dew
Point
°C
Rel
Hum
%
Delta-T
°C
Wind Press
QNH
hPa
Press
MSL
hPa
Rain since
9am
mm
Dir  Spd
km/h
Gust
km/h
Spd
kts
Gust
kts
09/11:30pm 25.5 - - - - CALM 0 2 0 1 1013.2 1013.1 -
09/11:00pm 25.5 - - - - SW 2 4 1 2 1013.3 1013.2 -
09/10:30pm 25.4 - - - - SW 7 9 4 5 1013.1 1013.0 -
09/10:00pm 26.3 - - - - SSW 7 9 4 5 1013.0 1012.9 -
09/09:30pm 26.7 - - - - CALM 0 2 0 1 1012.8 1012.7 -
09/09:00pm 27.0 - - - - NE 6 13 3 7 1012.4 1012.3 -
09/08:30pm 27.0 - - - - NE 7 11 4 6 1012.0 1011.9 -
09/08:00pm 27.3 - - - - NE 9 15 5 8 1011.8 1011.7 -
09/07:30pm 27.4 - - - - NNE 9 15 5 8 1011.5 1011.4 -
09/07:00pm 27.9 - - - - NNE 9 17 5 9 1011.4 1011.3 -
09/06:30pm 28.3 - - - - NNE 13 20 7 11 1011.2 1011.1 -
09/06:00pm 28.6 - - - - NNE 9 20 5 11 1010.8 1010.7 -
09/05:30pm 28.8 - - - - NNE 9 20 5 11 1010.6 1010.5 -
09/05:00pm 28.7 - - - - N 13 24 7 13 1010.4 1010.3 -
09/04:30pm 28.1 - - - - NW 11 20 6 11 1010.4 1010.3 -
09/04:00pm 28.1 - - - - NW 11 22 6 12 1010.5 1010.4 -
09/03:30pm 28.0 - - - - WNW 13 24 7 13 1010.8 1010.7 -
09/03:00pm 28.1 - - - - NW 11 20 6 11 1011.0 1010.9 -
09/02:30pm 27.3 - - - - WNW 17 30 9 16 1011.3 1011.2 -
09/02:00pm 27.6 - - - - NW 13 24 7 13 1011.8 1011.7 -
09/01:30pm 27.8 - - - - NW 13 22 7 12 1012.3 1012.2 -
09/01:00pm 27.8 - - - - WNW 13 20 7 11 1012.6 1012.5 -
09/12:30pm 26.8 - - - - W 11 15 6 8 1013.2 1013.1 -
09/12:00pm 26.2 - - - - W 9 15 5 8 1013.8 1013.7 -
09/11:30am 25.8 - - - - SW 6 7 3 4 1014.2 1014.1 -
09/11:00am 25.0 - - - - SW 6 9 3 5 1014.5 1014.4 -
09/10:30am 24.7 - - - - S 6 7 3 4 1014.8 1014.7 -
09/10:00am 24.3 - - - - S 6 6 3 3 1015.0 1014.9 -
09/09:30am 24.1 - - - - SSE 4 6 2 3 1014.8 1014.7 -
09/09:00am 23.8 - - - - SE 4 6 2 3 1014.7 1014.6 -
09/08:30am 23.9 - - - - ENE 4 9 2 5 1014.3 1014.2 -
09/08:00am 23.5 - - - - ENE 4 6 2 3 1014.2 1014.1 -
09/07:30am 22.9 - - - - ENE 4 6 2 3 1013.9 1013.8 -
09/07:00am 22.3 - - - - ENE 6 9 3 5 1013.6 1013.5 -
09/06:30am 22.4 - - - - ENE 6 9 3 5 1013.2 1013.1 -
09/06:00am 22.5 - - - - ENE 6 9 3 5 1013.0 1012.9 -
09/05:30am 23.3 - - - - E 4 4 2 2 1012.8 1012.7 -
09/05:00am 23.6 - - - - CALM 0 2 0 1 1012.7 1012.6 -
09/04:30am 23.2 - - - - ENE 2 2 1 1 1012.5 1012.4 -
09/04:00am 23.4 - - - - CALM 0 0 0 0 1012.5 1012.4 -
09/03:30am 23.2 - - - - ENE 4 4 2 2 1012.5 1012.4 -
09/03:00am 24.2 - - - - SE 2 4 1 2 1012.5 1012.4 -
09/02:30am 24.2 - - - - SSW 6 7 3 4 1012.4 1012.3 -
09/02:00am 24.2 - - - - SSW 2 4 1 2 1012.5 1012.4 -
09/01:30am 24.3 - - - - WSW 4 4 2 2 1012.3 1012.2 -
09/01:00am 24.4 - - - - WSW 4 6 2 3 1012.5 1012.4 -
09/12:30am 24.6 - - - - SW 6 7 3 4 1012.6 1012.5 -
09/12:00am 24.7 - - - - WSW 6 7 3 4 1012.7 1012.6 -
 
Date/Time
CST
Temp
°C
App
Temp
°C
Dew
Point
°C
Rel
Hum
%
Delta-T
°C
Wind Press
QNH
hPa
Press
MSL
hPa
Rain since
9am
mm
Dir  Spd
km/h
Gust
km/h
Spd
kts
Gust
kts
08/11:30pm 24.6 - - - - SW 9 13 5 7 1012.6 1012.5 -
08/11:00pm 25.0 - - - - SW 13 15 7 8 1012.7 1012.6 -
08/10:30pm 24.8 - - - - SW 9 15 5 8 1012.7 1012.6 -
08/10:00pm 25.5 - - - - WSW 7 11 4 6 1012.6 1012.5 -
08/09:30pm 25.5 - - - - W 7 9 4 5 1012.3 1012.2 -
08/09:00pm 25.7 - - - - WSW 9 13 5 7 1012.1 1012.0 -
08/08:30pm 25.9 - - - - WSW 11 13 6 7 1011.8 1011.7 -
08/08:00pm 26.1 - - - - W 7 11 4 6 1011.4 1011.3 -
08/07:30pm 28.1 - - - - N 11 15 6 8 1011.0 1010.9 -
08/07:00pm 28.4 - - - - NNE 9 15 5 8 1010.7 1010.6 -
08/06:30pm 28.6 - - - - NNE 11 22 6 12 1010.4 1010.3 -
08/06:00pm 29.0 - - - - NNE 15 26 8 14 1010.1 1010.0 -
08/05:30pm 29.4 - - - - NNE 13 20 7 11 1009.8 1009.7 -
08/05:00pm 29.1 - - - - N 11 19 6 10 1009.7 1009.6 -
08/04:30pm 29.2 - - - - N 11 20 6 11 1009.7 1009.6 -
08/04:00pm 29.0 - - - - NNW 15 28 8 15 1009.6 1009.5 -
08/03:30pm 30.1 - - - - NNW 15 26 8 14 1009.8 1009.7 -
08/03:00pm 30.3 - - - - S 6 7 3 4 1010.0 1009.9 -
08/02:30pm 31.1 - - - - SSE 7 9 4 5 1010.3 1010.2 -
08/02:00pm 30.5 - - - - SE 11 13 6 7 1010.8 1010.7 -
08/01:30pm 29.9 - - - - ESE 13 17 7 9 1011.2 1011.1 -
08/01:00pm 29.6 - - - - ESE 15 20 8 11 1011.7 1011.6 -
08/12:30pm 29.2 - - - - ESE 17 22 9 12 1012.2 1012.1 -
08/12:00pm 28.2 - - - - ESE 20 24 11 13 1012.7 1012.6 -
08/11:30am 28.0 - - - - ESE 26 30 14 16 1013.1 1013.0 -
08/11:00am 27.4 - - - - ESE 22 28 12 15 1013.5 1013.4 -
08/10:30am 26.8 - - - - ESE 24 32 13 17 1013.6 1013.5 -
08/10:00am 25.8 - - - - ESE 24 28 13 15 1013.7 1013.6 -
08/09:30am 24.4 - - - - ESE 22 28 12 15 1014.0 1013.9 -
08/09:00am 23.6 - - - - ESE 22 28 12 15 1013.7 1013.6 -
08/08:30am 23.3 - - - - ESE 22 26 12 14 1013.4 1013.3 -
08/08:00am 22.9 - - - - SE 15 19 8 10 1013.2 1013.1 -
08/07:30am 23.1 - - - - SE 17 20 9 11 1013.0 1012.9 -
08/07:00am 22.8 - - - - SE 17 20 9 11 1012.8 1012.7 -
08/06:30am 22.7 - - - - SE 13 17 7 9 1012.6 1012.5 -
08/06:00am 22.6 - - - - SE 13 17 7 9 1012.4 1012.3 -
08/05:30am 22.7 - - - - SE 13 17 7 9 1012.0 1011.9 -
08/05:00am 22.3 - - - - SSE 11 15 6 8 1011.8 1011.7 -
08/04:30am 22.6 - - - - SE 11 13 6 7 1011.8 1011.7 -
08/04:00am 23.3 - - - - SSE 11 15 6 8 1011.9 1011.8 -
08/03:30am 24.0 - - - - SSE 13 19 7 10 1012.0 1011.9 -
08/03:00am 23.5 - - - - SSE 9 13 5 7 1012.1 1012.0 -
08/02:30am 23.3 - - - - SSW 11 15 6 8 1012.1 1012.0 -
08/02:00am 22.9 - - - - SSW 9 13 5 7 1012.1 1012.0 -
08/01:30am 23.0 - - - - SW 13 15 7 8 1012.3 1012.2 -
08/01:00am 23.5 - - - - SW 17 20 9 11 1012.4 1012.3 -
08/12:30am 23.5 - - - - SW 19 24 10 13 1012.5 1012.4 -
08/12:00am 23.7 - - - - SW 15 19 8 10 1012.4 1012.3 -
 
Date/Time
CST
Temp
°C
App
Temp
°C
Dew
Point
°C
Rel
Hum
%
Delta-T
°C
Wind Press
QNH
hPa
Press
MSL
hPa
Rain since
9am
mm
Dir  Spd
km/h
Gust
km/h
Spd
kts
Gust
kts
07/11:30pm 23.9 - - - - SW 13 15 7 8 1012.5 1012.4 -
07/11:00pm 24.4 - - - - SW 13 17 7 9 1012.6 1012.5 -
07/10:30pm 24.9 - - - - SW 20 26 11 14 1012.6 1012.5 -
07/10:00pm 25.3 - - - - SW 22 26 12 14 1012.4 1012.3 -
07/09:30pm 25.5 - - - - WSW 15 20 8 11 1012.2 1012.1 -
07/09:00pm 25.7 - - - - W 13 17 7 9 1011.9 1011.8 -
07/08:30pm 26.0 - - - - W 13 17 7 9 1011.6 1011.5 -
07/08:00pm 26.3 - - - - W 15 19 8 10 1011.2 1011.1 -
07/07:30pm 26.4 - - - - W 13 15 7 8 1010.5 1010.4 -
07/07:00pm 26.8 - - - - W 19 24 10 13 1010.0 1009.9 -
07/06:30pm 27.0 - - - - W 17 22 9 12 1009.7 1009.6 -

Latest Capital City Observations: Canberra | Sydney | Melbourne | Brisbane | Adelaide | Perth | Hobart | Darwin

Other formats

Comma delimited format used in spreadsheet applications
http://www.bom.gov.au/fwo/IDD60901/IDD60901.95122.axf

JavaScript Object Notation format (JSON) in row-major order
http://www.bom.gov.au/fwo/IDD60901/IDD60901.95122.json

Data quality

Most of these data are generated automatically and are frequently updated. Quality checks on data are not normally performed. It is possible for incorrect values to appear. Refer to information at About Latest Weather Observations and please check the disclaimer before using these data.